createdAt,value
2018-10-02T00:02:43.942Z,4.17
2018-10-02T00:07:47.762Z,3.67
2018-10-02T00:12:56.630Z,3.93
2018-10-02T00:18:00.125Z,4.03
2018-10-02T00:23:03.720Z,4.67
2018-10-02T00:28:07.418Z,5.57
2018-10-02T00:33:10.978Z,4.97
2018-10-02T00:38:14.654Z,4.07
2018-10-02T00:43:18.323Z,3.70
2018-10-02T00:48:21.933Z,4.73
2018-10-02T00:53:25.530Z,4.27
2018-10-02T00:58:29.204Z,4.13
2018-10-02T01:03:33.078Z,4.93
2018-10-02T01:08:37.124Z,4.00
2018-10-02T01:13:40.815Z,4.63
2018-10-02T01:18:44.402Z,4.70
2018-10-02T01:23:48.033Z,5.37
2018-10-02T01:28:51.558Z,6.17
2018-10-02T01:33:55.112Z,6.37
2018-10-02T01:38:58.666Z,6.10
2018-10-02T01:44:02.372Z,5.13
2018-10-02T01:49:06.046Z,5.73
2018-10-02T01:54:09.622Z,6.87
2018-10-02T01:59:13.358Z,6.00
2018-10-02T02:04:16.977Z,5.63
2018-10-02T02:09:22.865Z,5.77
2018-10-02T02:14:26.413Z,5.80
2018-10-02T02:19:30.014Z,5.67
2018-10-02T02:24:33.549Z,5.97
2018-10-02T02:29:37.448Z,5.20
2018-10-02T02:34:40.959Z,5.77
2018-10-02T02:39:44.465Z,5.30
2018-10-02T02:44:47.981Z,7.27
2018-10-02T02:49:56.748Z,6.20
2018-10-02T02:55:00.710Z,5.23
2018-10-02T03:00:04.561Z,6.13
2018-10-02T03:05:08.170Z,6.07
2018-10-02T03:10:11.844Z,6.40
2018-10-02T03:15:15.438Z,5.67
2018-10-02T03:20:18.985Z,7.73
2018-10-02T03:25:22.566Z,6.33
2018-10-02T03:30:30.886Z,5.40
2018-10-02T03:35:34.563Z,5.13
2018-10-02T03:40:38.302Z,7.23
2018-10-02T03:45:41.896Z,7.50
2018-10-02T03:50:45.482Z,9.20
2018-10-02T03:55:49.256Z,8.67
2018-10-02T04:00:52.794Z,9.43
2018-10-02T04:05:56.577Z,9.47
2018-10-02T04:11:00.138Z,10.20
2018-10-02T04:16:03.982Z,9.10
2018-10-02T04:21:07.706Z,9.50
2018-10-02T04:26:11.334Z,9.70
2018-10-02T04:31:14.945Z,7.13
2018-10-02T04:36:18.593Z,7.30
2018-10-02T04:41:22.198Z,6.67
2018-10-02T04:46:25.878Z,5.37
2018-10-02T04:51:29.484Z,4.60
2018-10-02T04:56:33.065Z,3.87
2018-10-02T05:01:36.652Z,4.07
2018-10-02T05:06:40.392Z,3.47
2018-10-02T05:11:44.376Z,3.40
2018-10-02T05:16:51.811Z,3.43
2018-10-02T05:21:55.523Z,3.57
2018-10-02T05:26:59.104Z,3.47
2018-10-02T05:32:02.697Z,3.20
2018-10-02T05:37:06.287Z,3.63
2018-10-02T05:42:10.207Z,3.97
2018-10-02T05:47:13.806Z,4.73
2018-10-02T05:52:17.385Z,5.00
2018-10-02T05:57:21.001Z,5.17
2018-10-02T06:02:27.309Z,5.57
2018-10-02T06:07:30.832Z,5.13
2018-10-02T06:12:34.447Z,5.20
2018-10-02T06:17:38.037Z,4.67
2018-10-02T06:22:41.603Z,5.10
2018-10-02T06:27:45.116Z,5.77
2018-10-02T06:32:48.880Z,5.73
2018-10-02T06:37:52.478Z,6.63
2018-10-02T06:42:56.152Z,5.73
2018-10-02T06:47:59.876Z,5.53
2018-10-02T06:53:03.489Z,5.90
2018-10-02T06:58:07.187Z,7.17
2018-10-02T07:03:10.813Z,6.57
2018-10-02T07:08:14.503Z,9.43
2018-10-02T07:13:18.070Z,10.03
2018-10-02T07:18:21.661Z,10.13
2018-10-02T07:23:25.264Z,9.90
2018-10-02T07:28:28.879Z,10.40
2018-10-02T07:33:32.556Z,8.97
2018-10-02T07:38:36.250Z,9.57
2018-10-02T07:43:39.807Z,10.00
2018-10-02T07:48:43.367Z,8.83
2018-10-02T07:53:47.023Z,8.87
2018-10-02T07:58:50.607Z,9.47
2018-10-02T08:03:54.238Z,8.90
2018-10-02T08:08:57.918Z,9.67
2018-10-02T08:14:01.572Z,8.47
2018-10-02T08:19:05.283Z,7.80
2018-10-02T08:24:11.322Z,9.77
2018-10-02T08:29:14.914Z,8.43
2018-10-02T08:34:18.396Z,7.90
2018-10-02T08:39:21.940Z,8.67
2018-10-02T08:44:25.564Z,8.30
2018-10-02T08:49:29.050Z,7.73
2018-10-02T08:54:32.595Z,7.30
2018-10-02T08:59:36.367Z,6.70
2018-10-02T09:04:39.926Z,7.30
2018-10-02T09:09:43.536Z,6.83
2018-10-02T09:14:47.150Z,5.23
2018-10-02T09:19:50.688Z,5.03
2018-10-02T09:24:54.229Z,5.30
2018-10-02T09:30:03.527Z,5.43
2018-10-02T09:35:12.359Z,7.53
2018-10-02T09:40:21.328Z,5.67
2018-10-02T09:45:25.090Z,6.87
2018-10-02T09:50:28.833Z,6.07
2018-10-02T09:55:32.399Z,6.53
2018-10-02T10:00:41.445Z,7.50
2018-10-02T10:05:45.185Z,6.87
2018-10-02T10:10:48.823Z,6.93
2018-10-02T10:15:52.462Z,6.60
2018-10-02T10:20:56.023Z,7.40
2018-10-02T10:25:59.712Z,7.60
2018-10-02T10:31:03.412Z,6.70
2018-10-02T10:36:07.036Z,6.83
2018-10-02T10:41:10.623Z,7.53
2018-10-02T10:46:14.212Z,6.60
2018-10-02T10:51:17.779Z,7.07
2018-10-02T10:56:21.454Z,7.07
2018-10-02T11:01:25.141Z,7.50
2018-10-02T11:06:28.680Z,6.90
2018-10-02T11:11:32.262Z,7.13
2018-10-02T11:16:35.869Z,6.83
2018-10-02T11:21:39.420Z,6.03
2018-10-02T11:26:43.004Z,5.50
2018-10-02T11:31:46.753Z,6.37
2018-10-02T11:36:50.319Z,5.57
2018-10-02T11:41:58.882Z,5.53
2018-10-02T11:47:07.706Z,6.10
2018-10-02T11:52:15.697Z,6.27
2018-10-02T11:57:23.440Z,5.97
2018-10-02T12:02:27.071Z,6.57
2018-10-02T12:07:30.842Z,6.30
2018-10-02T12:12:35.497Z,7.33
2018-10-02T12:17:39.148Z,6.53
2018-10-02T12:22:42.861Z,5.73
2018-10-02T12:27:46.465Z,5.30
2018-10-02T12:32:50.098Z,6.70
2018-10-02T12:37:53.815Z,6.43
2018-10-02T12:42:57.417Z,6.50
2018-10-02T12:48:00.958Z,7.13
2018-10-02T12:53:10.072Z,7.90
2018-10-02T12:58:14.645Z,7.87
2018-10-02T13:03:18.271Z,9.53
2018-10-02T13:08:29.632Z,10.83
2018-10-02T13:13:33.239Z,10.20
2018-10-02T13:18:36.922Z,10.80
2018-10-02T13:23:40.574Z,12.53
2018-10-02T13:28:44.332Z,12.37
2018-10-02T13:33:47.977Z,13.40
2018-10-02T13:38:51.637Z,15.63
2018-10-02T13:43:55.239Z,14.87
2018-10-02T13:48:58.871Z,13.93
2018-10-02T13:54:02.396Z,16.53
2018-10-02T13:59:06.043Z,18.00
2018-10-02T14:04:09.708Z,19.00
2018-10-02T14:09:13.485Z,21.77
2018-10-02T14:14:17.509Z,22.80
2018-10-02T14:19:21.142Z,22.73
2018-10-02T14:24:27.633Z,25.53
2018-10-02T14:29:31.685Z,25.63
2018-10-02T14:34:38.156Z,28.10
2018-10-02T14:39:42.227Z,28.43
2018-10-02T14:44:45.829Z,27.33
2018-10-02T14:49:49.431Z,29.27
2018-10-02T14:54:53.171Z,29.73
2018-10-02T14:59:56.783Z,32.07
2018-10-02T15:05:00.664Z,32.40
2018-10-02T15:10:04.378Z,34.83
2018-10-02T15:15:08.405Z,35.37
2018-10-02T15:20:12.064Z,33.87
2018-10-02T15:25:15.945Z,34.80
2018-10-02T15:30:26.419Z,37.43
2018-10-02T15:35:29.982Z,38.10
2018-10-02T15:40:33.584Z,34.90
2018-10-02T15:45:37.788Z,32.83
2018-10-02T15:50:41.535Z,33.83
2018-10-02T15:55:45.405Z,33.47
2018-10-02T16:00:49.006Z,33.00
2018-10-02T16:05:52.597Z,29.03
2018-10-02T16:10:56.166Z,26.10
2018-10-02T16:15:59.715Z,25.90
2018-10-02T16:21:03.623Z,27.03
2018-10-02T16:26:07.610Z,24.83
2018-10-02T16:31:11.217Z,22.20
2018-10-02T16:36:14.874Z,22.23
2018-10-02T16:41:18.426Z,21.70
2018-10-02T16:46:21.978Z,19.87
2018-10-02T16:51:25.677Z,21.70
2018-10-02T16:56:29.336Z,20.40
2018-10-02T17:01:32.966Z,20.13
2018-10-02T17:06:36.576Z,19.87
2018-10-02T17:11:40.243Z,18.90
2018-10-02T17:16:43.861Z,17.57
2018-10-02T17:21:47.430Z,14.03
2018-10-02T17:26:50.997Z,13.23
2018-10-02T17:31:55.471Z,13.37
2018-10-02T17:36:59.117Z,12.27
2018-10-02T17:42:02.759Z,12.73
2018-10-02T17:47:06.503Z,12.90
2018-10-02T17:52:10.427Z,9.43
2018-10-02T17:57:17.181Z,8.33
2018-10-02T18:02:20.835Z,7.43
2018-10-02T18:07:27.374Z,6.00
2018-10-02T18:12:30.938Z,5.00
2018-10-02T18:17:35.419Z,3.10
2018-10-02T18:22:39.129Z,3.43
2018-10-02T18:27:42.727Z,2.17
2018-10-02T18:32:46.466Z,2.23
2018-10-02T18:37:50.185Z,2.40
2018-10-02T18:42:54.113Z,2.30
2018-10-02T18:47:57.790Z,3.03
2018-10-02T18:53:01.399Z,2.33
2018-10-02T18:58:05.006Z,2.40
2018-10-02T19:03:08.656Z,2.23
2018-10-02T19:08:12.875Z,3.00
2018-10-02T19:13:20.429Z,2.77
2018-10-02T19:18:24.000Z,3.13
2018-10-02T19:23:28.994Z,2.23
2018-10-02T19:28:33.015Z,2.63
2018-10-02T19:33:36.596Z,2.70
2018-10-02T19:38:47.956Z,2.83
2018-10-02T19:43:52.449Z,3.23
2018-10-02T19:48:56.161Z,3.43
2018-10-02T19:54:00.798Z,3.60
2018-10-02T19:59:04.938Z,3.60
2018-10-02T20:04:08.652Z,3.63
2018-10-02T20:09:12.762Z,3.73
2018-10-02T20:14:16.359Z,2.60
2018-10-02T20:19:19.845Z,3.17
2018-10-02T20:24:23.383Z,2.63
2018-10-02T20:29:27.058Z,2.17
2018-10-02T20:34:30.573Z,3.13
2018-10-02T20:39:34.104Z,3.23
2018-10-02T20:44:37.759Z,2.57
2018-10-02T20:49:41.267Z,2.47
2018-10-02T20:54:44.886Z,3.20
2018-10-02T20:59:48.509Z,3.73
2018-10-02T21:04:53.893Z,3.67
2018-10-02T21:09:57.642Z,3.53
2018-10-02T21:15:01.238Z,2.63
2018-10-02T21:20:04.971Z,3.67
2018-10-02T21:25:08.806Z,3.77
2018-10-02T21:30:17.307Z,3.10
2018-10-02T21:35:20.920Z,2.80
2018-10-02T21:40:24.749Z,3.70
2018-10-02T21:45:28.317Z,3.63
2018-10-02T21:50:31.952Z,4.17
2018-10-02T21:55:35.532Z,3.33
2018-10-02T22:00:45.405Z,3.33
2018-10-02T22:05:49.002Z,4.60
2018-10-02T22:10:52.534Z,3.40
2018-10-02T22:15:56.420Z,4.60
2018-10-02T22:21:00.175Z,3.07
2018-10-02T22:26:04.112Z,4.27
2018-10-02T22:31:08.053Z,4.03
2018-10-02T22:36:12.179Z,4.20
2018-10-02T22:41:15.782Z,4.07
2018-10-02T22:46:19.443Z,3.83
2018-10-02T22:51:23.112Z,3.60
2018-10-02T22:56:26.733Z,3.43
2018-10-02T23:01:30.483Z,3.90
2018-10-02T23:06:34.013Z,4.20
2018-10-02T23:11:37.559Z,2.90
2018-10-02T23:16:41.141Z,3.53
2018-10-02T23:21:44.757Z,3.40
2018-10-02T23:26:48.375Z,4.80
2018-10-02T23:31:51.985Z,3.97
2018-10-02T23:36:55.645Z,4.30
2018-10-02T23:41:59.251Z,4.30
2018-10-02T23:47:03.142Z,3.93
2018-10-02T23:52:06.958Z,4.97
2018-10-02T23:57:10.612Z,3.30
